Milan, MO (63556)

2:15 PM CST en Marzo 04, 2015 (GMT -0600)
2mi SE of Milan, MO | Change Station
CLOSE
Current Station
Estación meteorológica personal
Location: Milan, MO
Altura: 910 ft
Estaciones meteorológicas cercanas

Alt 910 ft 40.17 °N, 93.09 °W | Updated 1 second ago

Parcialmente nublado
Parcialmente nublado
26.1 ° F
Sensación térmica 19 ° F
N
5.8
Viento Variable Viento desde SO
Gusts 5.8 mph

Hoy
Alta -- | Baja -- ° F
--% Posibilidad de precipitaciones
Ayer
Alta -- | Baja -- ° F
Precip. -- pul
6:41 AM 6:07 PM
Gibosa creciente, 99% visible
Presión 30.27 pul
Visibilidad 10.0 Millas
Nubes Despejado
Vientos helados 19 ° F
Punto de rocío 21 ° F
Humedad 80%
Precipitaciones 0.00 pul
Espesor de la nieve No disponible.
UV 5 de una escala de 12
Polen .50 de una escala de 12
Calidad del aire No disponible.
Flu Activity No disponible.
METAR KTVK 041955Z AUTO 33009G14KT 030V010 10SM CLR M04/M17 A3027 RMK AO2

More Conditions Fewer Conditions

Presión 30.27 pul
Visibilidad 10.0 Millas
Nubes Despejado
Vientos helados 19 ° F
Punto de rocío 21 ° F
Humedad 80%
Precipitaciones 0.00 pul
Espesor de la nieve No disponible.
UV 5 de una escala de 12
Polen .50 de una escala de 12
Calidad del aire No disponible.
Flu Activity No disponible.
METAR KTVK 041955Z AUTO 33009G14KT 030V010 10SM CLR M04/M17 A3027 RMK AO2

More Conditions Fewer Conditions

10-Day Weather Forecast

Almanac

Astronomía

Mar. 04, 2015 Salida Puesta
Hora real
Crepúsculo civil
Crepúsculo náutico
Crepúsculo astronómico
Luna
Horas de luz
Horas de luz
Tomorrow will be .
, % of the Moon is Illuminated

Extremos de hoy

Máximos del estado Bajos del estado

Community

WunderPhotos

Upload Photos

1,802,567 ¡fotos cargadas!

WunderBlogs® & News

Nearby

Calidad del aire

  Calidad del aire Índice AQ Contaminante
Not available.

Grosos de nieve

Estación Profundido Altura

Actividad de terremotos

Ciudad Distance Mag. Tiempo y dato
Magnitud mínima muestra es 2,5.

Temperaturas de aguas costeras

Lugar Temperatura

Estaciones meteorológicas cercanas